sensor_id;sensor_type;location;lat;lon;timestamp;temperature;humidity
41310;DHT22;27057;51.438;-0.010;2023-12-07T00:00:24;6.20;99.90
41310;DHT22;27057;51.438;-0.010;2023-12-07T00:02:51;6.10;99.90
41310;DHT22;27057;51.438;-0.010;2023-12-07T00:05:19;7.90;99.90
41310;DHT22;27057;51.438;-0.010;2023-12-07T00:07:46;6.40;99.90
41310;DHT22;27057;51.438;-0.010;2023-12-07T00:10:13;6.20;99.90
41310;DHT22;27057;51.438;-0.010;2023-12-07T00:12:42;6.50;99.90
41310;DHT22;27057;51.438;-0.010;2023-12-07T00:15:09;6.30;99.90
41310;DHT22;27057;51.438;-0.010;2023-12-07T00:17:37;6.40;99.90
41310;DHT22;27057;51.438;-0.010;2023-12-07T00:20:05;6.40;99.90
41310;DHT22;27057;51.438;-0.010;2023-12-07T00:22:32;6.30;99.90
41310;DHT22;27057;51.438;-0.010;2023-12-07T00:25:00;6.40;99.90
41310;DHT22;27057;51.438;-0.010;2023-12-07T00:27:27;6.40;99.90
41310;DHT22;27057;51.438;-0.010;2023-12-07T00:29:55;6.40;99.90
41310;DHT22;27057;51.438;-0.010;2023-12-07T00:32:22;6.40;99.90
41310;DHT22;27057;51.438;-0.010;2023-12-07T00:34:50;8.00;99.90
41310;DHT22;27057;51.438;-0.010;2023-12-07T00:39:45;6.50;99.90
41310;DHT22;27057;51.438;-0.010;2023-12-07T00:42:13;6.40;99.90
41310;DHT22;27057;51.438;-0.010;2023-12-07T00:44:41;6.60;99.90
41310;DHT22;27057;51.438;-0.010;2023-12-07T00:47:08;6.70;99.90
41310;DHT22;27057;51.438;-0.010;2023-12-07T00:49:39;6.80;99.90
41310;DHT22;27057;51.438;-0.010;2023-12-07T00:52:08;6.70;99.90
41310;DHT22;27057;51.438;-0.010;2023-12-07T00:54:36;6.60;99.90
41310;DHT22;27057;51.438;-0.010;2023-12-07T00:57:03;6.40;99.90
41310;DHT22;27057;51.438;-0.010;2023-12-07T01:02:01;6.60;99.90
41310;DHT22;27057;51.438;-0.010;2023-12-07T01:04:29;6.40;99.90
41310;DHT22;27057;51.438;-0.010;2023-12-07T01:06:58;6.90;99.90
41310;DHT22;27057;51.438;-0.010;2023-12-07T01:09:26;6.70;99.90
41310;DHT22;27057;51.438;-0.010;2023-12-07T01:11:53;6.80;99.90
41310;DHT22;27057;51.438;-0.010;2023-12-07T01:16:48;6.40;99.90
41310;DHT22;27057;51.438;-0.010;2023-12-07T01:21:44;6.50;99.90
41310;DHT22;27057;51.438;-0.010;2023-12-07T01:24:11;6.90;99.90
41310;DHT22;27057;51.438;-0.010;2023-12-07T01:26:43;6.90;99.90
41310;DHT22;27057;51.438;-0.010;2023-12-07T01:31:39;7.00;99.90
41310;DHT22;27057;51.438;-0.010;2023-12-07T01:34:06;6.80;99.90
41310;DHT22;27057;51.438;-0.010;2023-12-07T01:36:34;6.80;99.90
41310;DHT22;27057;51.438;-0.010;2023-12-07T01:39:01;6.90;99.90
41310;DHT22;27057;51.438;-0.010;2023-12-07T01:41:28;9.60;99.90
41310;DHT22;27057;51.438;-0.010;2023-12-07T01:43:56;6.80;99.90
41310;DHT22;27057;51.438;-0.010;2023-12-07T01:46:23;7.60;99.90
41310;DHT22;27057;51.438;-0.010;2023-12-07T01:48:51;6.60;99.90
41310;DHT22;27057;51.438;-0.010;2023-12-07T01:51:19;6.90;99.90
41310;DHT22;27057;51.438;-0.010;2023-12-07T01:53:47;7.10;99.90
41310;DHT22;27057;51.438;-0.010;2023-12-07T01:56:16;7.40;99.90
41310;DHT22;27057;51.438;-0.010;2023-12-07T01:58:44;7.00;99.90
41310;DHT22;27057;51.438;-0.010;2023-12-07T02:06:08;6.80;99.90
41310;DHT22;27057;51.438;-0.010;2023-12-07T02:08:36;6.70;99.90
41310;DHT22;27057;51.438;-0.010;2023-12-07T02:11:09;6.70;99.90
41310;DHT22;27057;51.438;-0.010;2023-12-07T02:13:37;6.80;99.90
41310;DHT22;27057;51.438;-0.010;2023-12-07T02:16:23;7.10;99.90
41310;DHT22;27057;51.438;-0.010;2023-12-07T02:24:02;6.60;99.90
41310;DHT22;27057;51.438;-0.010;2023-12-07T02:26:34;6.80;99.90
41310;DHT22;27057;51.438;-0.010;2023-12-07T02:31:30;6.80;99.90
41310;DHT22;27057;51.438;-0.010;2023-12-07T02:33:58;6.90;99.90
41310;DHT22;27057;51.438;-0.010;2023-12-07T02:36:29;6.80;99.90
41310;DHT22;27057;51.438;-0.010;2023-12-07T02:38:58;7.00;99.90
41310;DHT22;27057;51.438;-0.010;2023-12-07T02:41:30;6.80;99.90
41310;DHT22;27057;51.438;-0.010;2023-12-07T02:43:59;6.90;99.90
41310;DHT22;27057;51.438;-0.010;2023-12-07T02:46:26;7.10;99.90
41310;DHT22;27057;51.438;-0.010;2023-12-07T02:53:49;6.70;99.90
41310;DHT22;27057;51.438;-0.010;2023-12-07T02:56:16;6.90;99.90
41310;DHT22;27057;51.438;-0.010;2023-12-07T02:58:44;6.90;99.90
41310;DHT22;27057;51.438;-0.010;2023-12-07T03:01:11;6.80;99.90
41310;DHT22;27057;51.438;-0.010;2023-12-07T03:03:38;7.00;99.90
41310;DHT22;27057;51.438;-0.010;2023-12-07T03:06:07;6.70;99.90
41310;DHT22;27057;51.438;-0.010;2023-12-07T03:08:35;7.10;99.90
41310;DHT22;27057;51.438;-0.010;2023-12-07T03:13:30;7.00;99.90
41310;DHT22;27057;51.438;-0.010;2023-12-07T03:15:57;7.40;99.90
41310;DHT22;27057;51.438;-0.010;2023-12-07T03:20:53;7.20;99.90
41310;DHT22;27057;51.438;-0.010;2023-12-07T03:25:48;7.00;99.90
41310;DHT22;27057;51.438;-0.010;2023-12-07T03:28:15;7.10;99.90
41310;DHT22;27057;51.438;-0.010;2023-12-07T03:30:42;7.10;99.90
41310;DHT22;27057;51.438;-0.010;2023-12-07T03:33:10;7.10;99.90
41310;DHT22;27057;51.438;-0.010;2023-12-07T03:35:37;7.20;99.90
41310;DHT22;27057;51.438;-0.010;2023-12-07T03:38:05;6.80;99.90
41310;DHT22;27057;51.438;-0.010;2023-12-07T03:40:33;7.10;99.90
41310;DHT22;27057;51.438;-0.010;2023-12-07T03:43:00;7.10;99.90
41310;DHT22;27057;51.438;-0.010;2023-12-07T03:47:58;7.30;99.90
41310;DHT22;27057;51.438;-0.010;2023-12-07T03:50:25;7.10;99.90
41310;DHT22;27057;51.438;-0.010;2023-12-07T03:57:48;6.80;99.90
41310;DHT22;27057;51.438;-0.010;2023-12-07T04:00:16;7.30;99.90
41310;DHT22;27057;51.438;-0.010;2023-12-07T04:02:43;7.20;99.90
41310;DHT22;27057;51.438;-0.010;2023-12-07T04:05:11;8.30;99.90
41310;DHT22;27057;51.438;-0.010;2023-12-07T04:07:39;7.20;99.90
41310;DHT22;27057;51.438;-0.010;2023-12-07T04:12:35;7.20;99.90
41310;DHT22;27057;51.438;-0.010;2023-12-07T04:15:02;7.10;99.90
41310;DHT22;27057;51.438;-0.010;2023-12-07T04:17:30;6.90;99.90
41310;DHT22;27057;51.438;-0.010;2023-12-07T04:19:57;8.50;99.90
41310;DHT22;27057;51.438;-0.010;2023-12-07T04:22:24;6.90;99.90
41310;DHT22;27057;51.438;-0.010;2023-12-07T04:24:52;7.10;99.90
41310;DHT22;27057;51.438;-0.010;2023-12-07T04:27:20;7.60;99.90
41310;DHT22;27057;51.438;-0.010;2023-12-07T04:29:47;7.30;99.90
41310;DHT22;27057;51.438;-0.010;2023-12-07T04:32:15;6.90;99.90
41310;DHT22;27057;51.438;-0.010;2023-12-07T04:34:43;7.20;99.90
41310;DHT22;27057;51.438;-0.010;2023-12-07T04:37:10;7.10;99.90
41310;DHT22;27057;51.438;-0.010;2023-12-07T04:39:38;7.20;99.90
41310;DHT22;27057;51.438;-0.010;2023-12-07T04:42:05;7.50;99.90
41310;DHT22;27057;51.438;-0.010;2023-12-07T04:44:33;7.00;99.90
41310;DHT22;27057;51.438;-0.010;2023-12-07T04:49:28;6.80;99.90
41310;DHT22;27057;51.438;-0.010;2023-12-07T04:51:55;7.20;99.90
41310;DHT22;27057;51.438;-0.010;2023-12-07T04:54:23;7.30;99.90
41310;DHT22;27057;51.438;-0.010;2023-12-07T04:56:51;7.40;99.90
41310;DHT22;27057;51.438;-0.010;2023-12-07T05:01:47;7.30;99.90
41310;DHT22;27057;51.438;-0.010;2023-12-07T05:04:14;8.60;99.90
41310;DHT22;27057;51.438;-0.010;2023-12-07T05:06:42;7.20;99.90
41310;DHT22;27057;51.438;-0.010;2023-12-07T05:09:09;7.40;99.90
41310;DHT22;27057;51.438;-0.010;2023-12-07T05:11:37;7.10;99.90
41310;DHT22;27057;51.438;-0.010;2023-12-07T05:19:00;7.10;99.90
41310;DHT22;27057;51.438;-0.010;2023-12-07T05:21:28;7.10;99.90
41310;DHT22;27057;51.438;-0.010;2023-12-07T05:23:55;7.20;99.90
41310;DHT22;27057;51.438;-0.010;2023-12-07T05:28:51;7.00;99.90
41310;DHT22;27057;51.438;-0.010;2023-12-07T05:31:19;7.20;99.90
41310;DHT22;27057;51.438;-0.010;2023-12-07T05:33:46;7.10;99.90
41310;DHT22;27057;51.438;-0.010;2023-12-07T05:36:13;7.10;99.90
41310;DHT22;27057;51.438;-0.010;2023-12-07T05:41:09;7.40;99.90
41310;DHT22;27057;51.438;-0.010;2023-12-07T05:46:04;7.20;99.90
41310;DHT22;27057;51.438;-0.010;2023-12-07T05:48:31;7.10;99.90
41310;DHT22;27057;51.438;-0.010;2023-12-07T05:50:59;7.30;99.90
41310;DHT22;27057;51.438;-0.010;2023-12-07T05:53:26;7.60;99.90
41310;DHT22;27057;51.438;-0.010;2023-12-07T05:55:57;7.30;99.90
41310;DHT22;27057;51.438;-0.010;2023-12-07T05:58:24;7.40;99.90
41310;DHT22;27057;51.438;-0.010;2023-12-07T06:00:52;7.20;99.90
41310;DHT22;27057;51.438;-0.010;2023-12-07T06:08:14;7.10;99.90
41310;DHT22;27057;51.438;-0.010;2023-12-07T06:13:10;7.30;99.90
41310;DHT22;27057;51.438;-0.010;2023-12-07T06:15:37;6.90;99.90
41310;DHT22;27057;51.438;-0.010;2023-12-07T06:18:05;7.40;99.90
41310;DHT22;27057;51.438;-0.010;2023-12-07T06:20:33;7.30;99.90
41310;DHT22;27057;51.438;-0.010;2023-12-07T06:27:57;7.30;99.90
41310;DHT22;27057;51.438;-0.010;2023-12-07T06:30:25;7.30;99.90
41310;DHT22;27057;51.438;-0.010;2023-12-07T06:32:52;7.10;99.90
41310;DHT22;27057;51.438;-0.010;2023-12-07T06:40:15;7.50;99.90
41310;DHT22;27057;51.438;-0.010;2023-12-07T06:45:10;7.30;99.90
41310;DHT22;27057;51.438;-0.010;2023-12-07T06:50:09;7.30;99.90
41310;DHT22;27057;51.438;-0.010;2023-12-07T06:52:37;7.10;99.90
41310;DHT22;27057;51.438;-0.010;2023-12-07T06:55:05;7.00;99.90
41310;DHT22;27057;51.438;-0.010;2023-12-07T06:57:33;7.10;99.90
41310;DHT22;27057;51.438;-0.010;2023-12-07T07:09:58;7.00;99.90
41310;DHT22;27057;51.438;-0.010;2023-12-07T07:14:54;7.00;99.90
41310;DHT22;27057;51.438;-0.010;2023-12-07T07:22:17;7.00;99.90
41310;DHT22;27057;51.438;-0.010;2023-12-07T07:29:40;7.50;99.90
41310;DHT22;27057;51.438;-0.010;2023-12-07T07:34:36;7.30;99.90
41310;DHT22;27057;51.438;-0.010;2023-12-07T07:37:03;7.60;99.90
41310;DHT22;27057;51.438;-0.010;2023-12-07T07:39:31;7.30;99.90
41310;DHT22;27057;51.438;-0.010;2023-12-07T07:41:59;7.50;99.90
41310;DHT22;27057;51.438;-0.010;2023-12-07T07:59:15;7.20;99.90
41310;DHT22;27057;51.438;-0.010;2023-12-07T08:01:42;7.30;99.90
41310;DHT22;27057;51.438;-0.010;2023-12-07T08:09:09;7.30;99.90
41310;DHT22;27057;51.438;-0.010;2023-12-07T08:11:37;7.40;99.90
41310;DHT22;27057;51.438;-0.010;2023-12-07T08:16:32;7.20;99.90
41310;DHT22;27057;51.438;-0.010;2023-12-07T08:19:00;7.40;99.90
41310;DHT22;27057;51.438;-0.010;2023-12-07T08:21:27;7.10;99.90
41310;DHT22;27057;51.438;-0.010;2023-12-07T08:23:57;7.10;99.90
41310;DHT22;27057;51.438;-0.010;2023-12-07T08:36:19;7.60;99.90
41310;DHT22;27057;51.438;-0.010;2023-12-07T08:38:48;7.60;99.90
41310;DHT22;27057;51.438;-0.010;2023-12-07T08:41:15;7.70;99.90
41310;DHT22;27057;51.438;-0.010;2023-12-07T08:46:10;7.30;99.90
41310;DHT22;27057;51.438;-0.010;2023-12-07T08:48:38;7.80;99.90
41310;DHT22;27057;51.438;-0.010;2023-12-07T08:51:10;7.50;99.90
41310;DHT22;27057;51.438;-0.010;2023-12-07T08:53:38;7.50;99.90
41310;DHT22;27057;51.438;-0.010;2023-12-07T08:58:33;7.50;99.90
41310;DHT22;27057;51.438;-0.010;2023-12-07T09:01:01;7.60;99.90
41310;DHT22;27057;51.438;-0.010;2023-12-07T09:08:28;7.50;99.90
41310;DHT22;27057;51.438;-0.010;2023-12-07T09:10:55;7.60;99.90
41310;DHT22;27057;51.438;-0.010;2023-12-07T09:13:22;7.80;99.90
41310;DHT22;27057;51.438;-0.010;2023-12-07T09:15:50;8.70;99.90
41310;DHT22;27057;51.438;-0.010;2023-12-07T09:18:17;7.80;99.90
41310;DHT22;27057;51.438;-0.010;2023-12-07T09:20:45;7.70;99.90
41310;DHT22;27057;51.438;-0.010;2023-12-07T09:23:15;7.90;99.90
41310;DHT22;27057;51.438;-0.010;2023-12-07T09:25:43;7.90;99.90
41310;DHT22;27057;51.438;-0.010;2023-12-07T09:28:11;8.10;99.90
41310;DHT22;27057;51.438;-0.010;2023-12-07T09:30:39;8.00;99.90
41310;DHT22;27057;51.438;-0.010;2023-12-07T09:33:06;8.90;99.90
41310;DHT22;27057;51.438;-0.010;2023-12-07T09:35:34;8.00;99.90
41310;DHT22;27057;51.438;-0.010;2023-12-07T09:38:02;8.20;99.90
41310;DHT22;27057;51.438;-0.010;2023-12-07T09:40:30;8.10;99.90
41310;DHT22;27057;51.438;-0.010;2023-12-07T09:42:58;8.10;99.90
41310;DHT22;27057;51.438;-0.010;2023-12-07T09:45:25;8.20;99.90
41310;DHT22;27057;51.438;-0.010;2023-12-07T09:47:55;8.60;99.90
41310;DHT22;27057;51.438;-0.010;2023-12-07T09:50:25;8.20;99.90
41310;DHT22;27057;51.438;-0.010;2023-12-07T09:52:54;8.10;99.90
41310;DHT22;27057;51.438;-0.010;2023-12-07T09:55:35;8.20;99.90
41310;DHT22;27057;51.438;-0.010;2023-12-07T09:58:05;8.40;99.90
41310;DHT22;27057;51.438;-0.010;2023-12-07T10:00:36;9.10;99.90
41310;DHT22;27057;51.438;-0.010;2023-12-07T10:03:06;8.30;99.90
41310;DHT22;27057;51.438;-0.010;2023-12-07T10:05:56;8.80;99.90
41310;DHT22;27057;51.438;-0.010;2023-12-07T10:08:29;8.50;99.90
41310;DHT22;27057;51.438;-0.010;2023-12-07T10:11:04;8.30;99.90
41310;DHT22;27057;51.438;-0.010;2023-12-07T10:13:33;8.30;99.90
41310;DHT22;27057;51.438;-0.010;2023-12-07T10:16:09;8.60;99.90
41310;DHT22;27057;51.438;-0.010;2023-12-07T10:18:38;8.40;99.90
41310;DHT22;27057;51.438;-0.010;2023-12-07T10:21:11;8.60;99.90
41310;DHT22;27057;51.438;-0.010;2023-12-07T10:23:38;8.40;99.90
41310;DHT22;27057;51.438;-0.010;2023-12-07T10:26:06;8.10;99.90
41310;DHT22;27057;51.438;-0.010;2023-12-07T10:28:35;8.70;99.90
41310;DHT22;27057;51.438;-0.010;2023-12-07T10:31:09;8.50;99.90
41310;DHT22;27057;51.438;-0.010;2023-12-07T10:33:37;8.60;99.90
41310;DHT22;27057;51.438;-0.010;2023-12-07T10:36:05;8.50;99.90
41310;DHT22;27057;51.438;-0.010;2023-12-07T10:38:33;8.40;99.90
41310;DHT22;27057;51.438;-0.010;2023-12-07T10:41:05;8.30;99.90
41310;DHT22;27057;51.438;-0.010;2023-12-07T10:43:38;8.60;99.90
41310;DHT22;27057;51.438;-0.010;2023-12-07T10:46:09;8.50;99.90
41310;DHT22;27057;51.438;-0.010;2023-12-07T10:48:37;9.40;99.90
41310;DHT22;27057;51.438;-0.010;2023-12-07T10:51:07;8.50;99.90
41310;DHT22;27057;51.438;-0.010;2023-12-07T10:53:41;8.70;99.90
41310;DHT22;27057;51.438;-0.010;2023-12-07T10:56:15;8.70;99.90
41310;DHT22;27057;51.438;-0.010;2023-12-07T10:58:45;8.70;99.90
41310;DHT22;27057;51.438;-0.010;2023-12-07T11:01:14;8.70;99.90
41310;DHT22;27057;51.438;-0.010;2023-12-07T11:03:43;8.90;99.90
41310;DHT22;27057;51.438;-0.010;2023-12-07T11:08:46;7.10;99.90
41310;DHT22;27057;51.438;-0.010;2023-12-07T11:11:34;8.90;99.90
41310;DHT22;27057;51.438;-0.010;2023-12-07T11:14:05;8.70;99.90
41310;DHT22;27057;51.438;-0.010;2023-12-07T11:16:36;8.90;99.90
41310;DHT22;27057;51.438;-0.010;2023-12-07T11:19:04;9.00;99.90
41310;DHT22;27057;51.438;-0.010;2023-12-07T11:21:35;9.00;99.90
41310;DHT22;27057;51.438;-0.010;2023-12-07T11:24:03;8.90;99.90
41310;DHT22;27057;51.438;-0.010;2023-12-07T11:26:31;9.00;99.90
41310;DHT22;27057;51.438;-0.010;2023-12-07T11:28:59;8.70;99.90
41310;DHT22;27057;51.438;-0.010;2023-12-07T11:31:27;8.70;99.90
41310;DHT22;27057;51.438;-0.010;2023-12-07T11:33:54;8.60;99.90
41310;DHT22;27057;51.438;-0.010;2023-12-07T11:36:22;9.00;99.90
41310;DHT22;27057;51.438;-0.010;2023-12-07T11:41:45;8.70;99.90
41310;DHT22;27057;51.438;-0.010;2023-12-07T11:44:17;8.50;99.90
41310;DHT22;27057;51.438;-0.010;2023-12-07T11:46:45;8.80;99.90
41310;DHT22;27057;51.438;-0.010;2023-12-07T11:49:12;8.80;99.90
41310;DHT22;27057;51.438;-0.010;2023-12-07T11:51:54;8.80;99.90
41310;DHT22;27057;51.438;-0.010;2023-12-07T11:54:23;10.20;99.90
41310;DHT22;27057;51.438;-0.010;2023-12-07T11:56:57;8.90;99.90
41310;DHT22;27057;51.438;-0.010;2023-12-07T11:59:25;8.70;99.90
41310;DHT22;27057;51.438;-0.010;2023-12-07T12:02:01;8.80;99.90
41310;DHT22;27057;51.438;-0.010;2023-12-07T12:04:30;8.80;99.90
41310;DHT22;27057;51.438;-0.010;2023-12-07T12:06:57;8.80;99.90
41310;DHT22;27057;51.438;-0.010;2023-12-07T12:09:25;8.80;99.90
41310;DHT22;27057;51.438;-0.010;2023-12-07T12:12:00;9.10;99.90
41310;DHT22;27057;51.438;-0.010;2023-12-07T12:16:56;8.80;99.90
41310;DHT22;27057;51.438;-0.010;2023-12-07T12:19:24;8.80;99.90
41310;DHT22;27057;51.438;-0.010;2023-12-07T12:22:01;9.00;99.90
41310;DHT22;27057;51.438;-0.010;2023-12-07T12:24:34;8.80;99.90
41310;DHT22;27057;51.438;-0.010;2023-12-07T12:27:03;8.70;99.90
41310;DHT22;27057;51.438;-0.010;2023-12-07T12:29:32;8.80;99.90
41310;DHT22;27057;51.438;-0.010;2023-12-07T12:32:02;9.60;99.90
41310;DHT22;27057;51.438;-0.010;2023-12-07T12:34:33;8.70;99.90
41310;DHT22;27057;51.438;-0.010;2023-12-07T12:37:01;9.00;99.90
41310;DHT22;27057;51.438;-0.010;2023-12-07T12:39:30;8.70;99.90
41310;DHT22;27057;51.438;-0.010;2023-12-07T12:42:02;8.80;99.90
41310;DHT22;27057;51.438;-0.010;2023-12-07T12:44:31;8.80;99.90
41310;DHT22;27057;51.438;-0.010;2023-12-07T12:47:05;8.70;99.90
41310;DHT22;27057;51.438;-0.010;2023-12-07T12:49:40;9.10;99.90
41310;DHT22;27057;51.438;-0.010;2023-12-07T12:52:14;9.20;99.90
41310;DHT22;27057;51.438;-0.010;2023-12-07T12:57:11;8.80;99.90
41310;DHT22;27057;51.438;-0.010;2023-12-07T12:59:39;8.80;99.90
41310;DHT22;27057;51.438;-0.010;2023-12-07T13:02:06;8.80;99.90
41310;DHT22;27057;51.438;-0.010;2023-12-07T13:04:37;8.50;99.90
41310;DHT22;27057;51.438;-0.010;2023-12-07T13:07:09;8.70;99.90
41310;DHT22;27057;51.438;-0.010;2023-12-07T13:09:36;8.60;99.90
41310;DHT22;27057;51.438;-0.010;2023-12-07T13:12:04;8.70;99.90
41310;DHT22;27057;51.438;-0.010;2023-12-07T13:14:33;8.60;99.90
41310;DHT22;27057;51.438;-0.010;2023-12-07T13:17:05;9.00;99.90
41310;DHT22;27057;51.438;-0.010;2023-12-07T13:19:35;8.40;99.90
41310;DHT22;27057;51.438;-0.010;2023-12-07T13:22:03;8.80;99.90
41310;DHT22;27057;51.438;-0.010;2023-12-07T13:24:31;8.60;99.90
41310;DHT22;27057;51.438;-0.010;2023-12-07T13:26:58;9.20;99.90
41310;DHT22;27057;51.438;-0.010;2023-12-07T13:29:27;8.60;99.90
41310;DHT22;27057;51.438;-0.010;2023-12-07T13:32:04;8.90;99.90
41310;DHT22;27057;51.438;-0.010;2023-12-07T13:34:33;8.70;99.90
41310;DHT22;27057;51.438;-0.010;2023-12-07T13:37:01;8.50;99.90
41310;DHT22;27057;51.438;-0.010;2023-12-07T13:39:28;8.30;99.90
41310;DHT22;27057;51.438;-0.010;2023-12-07T13:44:31;8.50;99.90
41310;DHT22;27057;51.438;-0.010;2023-12-07T13:47:00;8.40;99.90
41310;DHT22;27057;51.438;-0.010;2023-12-07T13:49:27;8.70;99.90
41310;DHT22;27057;51.438;-0.010;2023-12-07T13:52:03;8.40;99.90
41310;DHT22;27057;51.438;-0.010;2023-12-07T13:54:39;8.50;99.90
41310;DHT22;27057;51.438;-0.010;2023-12-07T13:57:20;10.20;99.90
41310;DHT22;27057;51.438;-0.010;2023-12-07T14:02:18;8.40;99.90
41310;DHT22;27057;51.438;-0.010;2023-12-07T14:04:46;8.50;99.90
41310;DHT22;27057;51.438;-0.010;2023-12-07T14:07:19;8.20;99.90
41310;DHT22;27057;51.438;-0.010;2023-12-07T14:09:49;8.40;99.90
41310;DHT22;27057;51.438;-0.010;2023-12-07T14:12:28;8.70;99.90
41310;DHT22;27057;51.438;-0.010;2023-12-07T14:14:56;8.70;99.90
41310;DHT22;27057;51.438;-0.010;2023-12-07T14:17:24;8.30;99.90
41310;DHT22;27057;51.438;-0.010;2023-12-07T14:19:54;9.30;99.90
41310;DHT22;27057;51.438;-0.010;2023-12-07T14:22:36;8.40;99.90
41310;DHT22;27057;51.438;-0.010;2023-12-07T14:25:04;8.20;99.90
41310;DHT22;27057;51.438;-0.010;2023-12-07T14:27:32;8.10;99.90
41310;DHT22;27057;51.438;-0.010;2023-12-07T14:30:00;8.10;99.90
41310;DHT22;27057;51.438;-0.010;2023-12-07T14:32:28;8.20;99.90
41310;DHT22;27057;51.438;-0.010;2023-12-07T14:34:56;8.40;99.90
41310;DHT22;27057;51.438;-0.010;2023-12-07T14:37:24;7.80;99.90
41310;DHT22;27057;51.438;-0.010;2023-12-07T14:39:54;8.20;99.90
41310;DHT22;27057;51.438;-0.010;2023-12-07T14:42:21;8.10;99.90
41310;DHT22;27057;51.438;-0.010;2023-12-07T14:44:49;8.40;99.90
41310;DHT22;27057;51.438;-0.010;2023-12-07T14:47:16;8.30;99.90
41310;DHT22;27057;51.438;-0.010;2023-12-07T14:49:44;8.20;99.90
41310;DHT22;27057;51.438;-0.010;2023-12-07T14:52:11;8.00;99.90
41310;DHT22;27057;51.438;-0.010;2023-12-07T14:54:38;8.00;99.90
41310;DHT22;27057;51.438;-0.010;2023-12-07T14:57:06;8.40;99.90
41310;DHT22;27057;51.438;-0.010;2023-12-07T14:59:35;7.90;99.90
41310;DHT22;27057;51.438;-0.010;2023-12-07T15:02:03;8.00;99.90
41310;DHT22;27057;51.438;-0.010;2023-12-07T15:04:30;8.10;99.90
41310;DHT22;27057;51.438;-0.010;2023-12-07T15:07:02;7.90;99.90
41310;DHT22;27057;51.438;-0.010;2023-12-07T15:09:31;7.90;99.90
41310;DHT22;27057;51.438;-0.010;2023-12-07T15:11:59;8.00;99.90
41310;DHT22;27057;51.438;-0.010;2023-12-07T15:14:27;7.70;99.90
41310;DHT22;27057;51.438;-0.010;2023-12-07T15:17:05;7.90;99.90
41310;DHT22;27057;51.438;-0.010;2023-12-07T15:19:35;7.80;99.90
41310;DHT22;27057;51.438;-0.010;2023-12-07T15:22:06;7.90;99.90
41310;DHT22;27057;51.438;-0.010;2023-12-07T15:24:35;7.80;99.90
41310;DHT22;27057;51.438;-0.010;2023-12-07T15:27:04;7.80;99.90
41310;DHT22;27057;51.438;-0.010;2023-12-07T15:29:32;7.80;99.90
41310;DHT22;27057;51.438;-0.010;2023-12-07T15:32:03;7.70;99.90
41310;DHT22;27057;51.438;-0.010;2023-12-07T15:37:10;7.40;99.90
41310;DHT22;27057;51.438;-0.010;2023-12-07T15:39:40;7.50;99.90
41310;DHT22;27057;51.438;-0.010;2023-12-07T15:42:08;7.70;99.90
41310;DHT22;27057;51.438;-0.010;2023-12-07T15:44:37;7.60;99.90
41310;DHT22;27057;51.438;-0.010;2023-12-07T15:47:04;7.60;99.90
41310;DHT22;27057;51.438;-0.010;2023-12-07T15:49:32;7.40;99.90
41310;DHT22;27057;51.438;-0.010;2023-12-07T15:51:59;7.50;99.90
41310;DHT22;27057;51.438;-0.010;2023-12-07T15:54:27;7.30;99.90
41310;DHT22;27057;51.438;-0.010;2023-12-07T15:57:06;7.40;99.90
41310;DHT22;27057;51.438;-0.010;2023-12-07T15:59:36;7.60;99.90
41310;DHT22;27057;51.438;-0.010;2023-12-07T16:04:32;7.30;99.90
41310;DHT22;27057;51.438;-0.010;2023-12-07T16:07:04;7.70;99.90
41310;DHT22;27057;51.438;-0.010;2023-12-07T16:09:36;7.80;99.90
41310;DHT22;27057;51.438;-0.010;2023-12-07T16:12:05;7.50;99.90
41310;DHT22;27057;51.438;-0.010;2023-12-07T16:14:34;7.80;99.90
41310;DHT22;27057;51.438;-0.010;2023-12-07T16:17:02;7.90;99.90
41310;DHT22;27057;51.438;-0.010;2023-12-07T16:19:30;7.40;99.90
41310;DHT22;27057;51.438;-0.010;2023-12-07T16:21:58;7.50;99.90
41310;DHT22;27057;51.438;-0.010;2023-12-07T16:24:25;7.50;99.90
41310;DHT22;27057;51.438;-0.010;2023-12-07T16:26:53;7.90;99.90
41310;DHT22;27057;51.438;-0.010;2023-12-07T16:29:21;7.10;99.90
41310;DHT22;27057;51.438;-0.010;2023-12-07T16:31:49;7.70;99.90
41310;DHT22;27057;51.438;-0.010;2023-12-07T16:34:17;8.40;99.90
41310;DHT22;27057;51.438;-0.010;2023-12-07T16:36:46;7.40;99.90
41310;DHT22;27057;51.438;-0.010;2023-12-07T16:39:14;7.50;99.90
41310;DHT22;27057;51.438;-0.010;2023-12-07T16:41:41;7.30;99.90
41310;DHT22;27057;51.438;-0.010;2023-12-07T16:44:21;7.50;99.90
41310;DHT22;27057;51.438;-0.010;2023-12-07T16:46:49;7.00;99.90
41310;DHT22;27057;51.438;-0.010;2023-12-07T16:49:16;7.70;99.90
41310;DHT22;27057;51.438;-0.010;2023-12-07T16:51:43;7.40;99.90
41310;DHT22;27057;51.438;-0.010;2023-12-07T16:54:11;7.10;99.90
41310;DHT22;27057;51.438;-0.010;2023-12-07T16:56:38;7.00;99.90
41310;DHT22;27057;51.438;-0.010;2023-12-07T16:59:06;7.40;99.90
41310;DHT22;27057;51.438;-0.010;2023-12-07T17:01:33;7.40;99.90
41310;DHT22;27057;51.438;-0.010;2023-12-07T17:04:00;7.50;99.90
41310;DHT22;27057;51.438;-0.010;2023-12-07T17:06:29;7.00;99.90
41310;DHT22;27057;51.438;-0.010;2023-12-07T17:08:59;7.40;99.90
41310;DHT22;27057;51.438;-0.010;2023-12-07T17:11:40;7.50;99.90
41310;DHT22;27057;51.438;-0.010;2023-12-07T17:16:35;7.10;99.90
41310;DHT22;27057;51.438;-0.010;2023-12-07T17:19:03;7.40;99.90
41310;DHT22;27057;51.438;-0.010;2023-12-07T17:21:31;7.20;99.90
41310;DHT22;27057;51.438;-0.010;2023-12-07T17:23:59;7.00;99.90
41310;DHT22;27057;51.438;-0.010;2023-12-07T17:26:27;7.20;99.90
41310;DHT22;27057;51.438;-0.010;2023-12-07T17:31:34;7.20;99.90
41310;DHT22;27057;51.438;-0.010;2023-12-07T17:34:01;7.00;99.90
41310;DHT22;27057;51.438;-0.010;2023-12-07T17:36:29;7.40;99.90
41310;DHT22;27057;51.438;-0.010;2023-12-07T17:38:56;7.50;99.90
41310;DHT22;27057;51.438;-0.010;2023-12-07T17:41:24;7.40;99.90
41310;DHT22;27057;51.438;-0.010;2023-12-07T17:43:51;7.50;99.90
41310;DHT22;27057;51.438;-0.010;2023-12-07T17:46:19;7.40;99.90
41310;DHT22;27057;51.438;-0.010;2023-12-07T17:48:47;7.30;99.90
41310;DHT22;27057;51.438;-0.010;2023-12-07T17:51:17;7.50;99.90
41310;DHT22;27057;51.438;-0.010;2023-12-07T17:56:12;7.40;99.90
41310;DHT22;27057;51.438;-0.010;2023-12-07T18:01:07;7.20;99.90
41310;DHT22;27057;51.438;-0.010;2023-12-07T18:03:35;7.30;99.90
41310;DHT22;27057;51.438;-0.010;2023-12-07T18:06:09;7.00;99.90
41310;DHT22;27057;51.438;-0.010;2023-12-07T18:08:37;7.10;99.90
41310;DHT22;27057;51.438;-0.010;2023-12-07T18:13:32;7.30;99.90
41310;DHT22;27057;51.438;-0.010;2023-12-07T18:16:00;7.30;99.90
41310;DHT22;27057;51.438;-0.010;2023-12-07T18:18:28;7.00;99.90
41310;DHT22;27057;51.438;-0.010;2023-12-07T18:20:56;7.80;99.90
41310;DHT22;27057;51.438;-0.010;2023-12-07T18:23:24;7.20;99.90
41310;DHT22;27057;51.438;-0.010;2023-12-07T18:25:51;7.60;99.90
41310;DHT22;27057;51.438;-0.010;2023-12-07T18:28:18;7.50;99.90
41310;DHT22;27057;51.438;-0.010;2023-12-07T18:30:46;7.50;99.90
41310;DHT22;27057;51.438;-0.010;2023-12-07T18:33:13;7.30;99.90
41310;DHT22;27057;51.438;-0.010;2023-12-07T18:35:41;7.30;99.90
41310;DHT22;27057;51.438;-0.010;2023-12-07T18:40:36;7.30;99.90
41310;DHT22;27057;51.438;-0.010;2023-12-07T18:45:41;7.30;99.90
41310;DHT22;27057;51.438;-0.010;2023-12-07T18:48:09;7.50;99.90
41310;DHT22;27057;51.438;-0.010;2023-12-07T18:50:37;7.50;99.90